Time;durP1;ratioP1;P1;durP2;ratioP2;P2;SDS_P1;SDS_P2;PMS_P1;PMS_P2;Temp;Humidity;BMP_temperature;BMP_pressure;BME280_temperature;BME280_humidity;BME280_pressure;Samples;Min_cycle;Max_cycle;Signal;HPM_P1;HPM_P2
2021/12/26 00:00:28;;;;;;;0.43;0.43;;;;;;;;;;4968107;28;20214;-69
2021/12/26 00:02:57;;;;;;;1.20;0.70;;;;;;;;;;4968163;28;20579;-70
2021/12/26 00:05:24;;;;;;;1.03;0.73;;;;;;;;;;4968537;28;20667;-70
2021/12/26 00:07:52;;;;;;;0.00;0.00;;;;;;;;;;4964468;28;20596;-68
2021/12/26 00:10:21;;;;;;;1.07;1.03;;;;;;;;;;4966114;28;20575;-69
2021/12/26 00:12:49;;;;;;;0.00;0.00;;;;;;;;;;4968675;28;20727;-69
2021/12/26 00:15:16;;;;;;;1.60;1.17;;;;;;;;;;4965114;28;20206;-69
2021/12/26 00:17:45;;;;;;;0.93;0.93;;;;;;;;;;4967316;28;20573;-68
2021/12/26 00:20:13;;;;;;;0.00;0.00;;;;;;;;;;4965247;28;20217;-69
2021/12/26 00:22:41;;;;;;;0.73;0.67;;;;;;;;;;4965963;28;20201;-70
2021/12/26 00:25:10;;;;;;;0.00;0.00;;;;;;;;;;4965331;28;20210;-68
2021/12/26 00:27:37;;;;;;;0.10;0.10;;;;;;;;;;4959961;28;20325;-70
2021/12/26 00:30:07;;;;;;;0.30;0.30;;;;;;;;;;4959608;28;20579;-69
2021/12/26 00:32:34;;;;;;;0.10;0.10;;;;;;;;;;4960462;28;20217;-70
2021/12/26 00:35:05;;;;;;;1.23;0.80;;;;;;;;;;4960559;28;20221;-69
2021/12/26 00:37:32;;;;;;;0.40;0.40;;;;;;;;;;4959707;28;20215;-70
2021/12/26 00:39:59;;;;;;;0.27;0.27;;;;;;;;;;4959659;28;20248;-69
2021/12/26 00:42:27;;;;;;;0.30;0.30;;;;;;;;;;4958997;28;20202;-69
2021/12/26 00:44:54;;;;;;;3.03;1.13;;;;;;;;;;4958672;28;20202;-68
2021/12/26 00:47:22;;;;;;;0.00;0.00;;;;;;;;;;4958167;28;20225;-68
2021/12/26 00:49:49;;;;;;;0.10;0.10;;;;;;;;;;4959513;28;20225;-69
2021/12/26 00:52:18;;;;;;;0.57;0.57;;;;;;;;;;4958285;28;20210;-69
2021/12/26 00:54:46;;;;;;;0.00;0.00;;;;;;;;;;4959157;28;20244;-69
2021/12/26 00:57:13;;;;;;;2.33;1.17;;;;;;;;;;4960150;28;20234;-69
2021/12/26 00:59:40;;;;;;;0.50;0.37;;;;;;;;;;4960038;28;20210;-69
2021/12/26 01:02:08;;;;;;;0.57;0.57;;;;;;;;;;4959249;28;20758;-69
2021/12/26 01:04:37;;;;;;;0.00;0.00;;;;;;;;;;4959116;28;20198;-69
2021/12/26 01:07:10;;;;;;;0.63;0.53;;;;;;;;;;4959114;28;20237;-70
2021/12/26 01:09:40;;;;;;;0.40;0.40;;;;;;;;;;4963053;28;20404;-69
2021/12/26 01:12:13;;;;;;;0.47;0.47;;;;;;;;;;4959146;28;20221;-68
2021/12/26 01:14:47;;;;;;;4.53;1.90;;;;;;;;;;4959795;28;20209;-69
2021/12/26 01:17:18;;;;;;;0.60;0.60;;;;;;;;;;4957745;28;20213;-69
2021/12/26 01:19:49;;;;;;;0.37;0.30;;;;;;;;;;4958668;28;20210;-68
2021/12/26 01:22:17;;;;;;;0.27;0.27;;;;;;;;;;4962907;28;20202;-68
2021/12/26 01:24:48;;;;;;;2.03;1.90;;;;;;;;;;4959271;28;20209;-69
2021/12/26 01:27:16;;;;;;;3.47;1.47;;;;;;;;;;4958852;28;20245;-69
2021/12/26 01:29:43;;;;;;;0.50;0.40;;;;;;;;;;4957571;28;20206;-69
2021/12/26 01:32:11;;;;;;;0.97;0.97;;;;;;;;;;4961207;28;20557;-69
2021/12/26 01:34:38;;;;;;;2.17;1.10;;;;;;;;;;4960273;28;20198;-70
2021/12/26 01:37:05;;;;;;;0.80;0.80;;;;;;;;;;4960443;28;20216;-69
2021/12/26 01:39:33;;;;;;;4.90;0.77;;;;;;;;;;4957464;28;20202;-69
2021/12/26 01:42:03;;;;;;;3.47;1.53;;;;;;;;;;4959960;28;20206;-69
2021/12/26 01:44:31;;;;;;;1.63;0.90;;;;;;;;;;4962162;28;20289;-69
2021/12/26 01:46:59;;;;;;;2.50;1.20;;;;;;;;;;4960134;28;20234;-68
2021/12/26 01:49:28;;;;;;;7.07;1.67;;;;;;;;;;4960193;28;20587;-67
2021/12/26 01:51:57;;;;;;;1.47;1.37;;;;;;;;;;4958896;28;20198;-68
2021/12/26 01:54:31;;;;;;;4.87;2.47;;;;;;;;;;4961368;28;20242;-68
2021/12/26 01:56:58;;;;;;;4.33;1.70;;;;;;;;;;4957369;28;20214;-68
2021/12/26 01:59:28;;;;;;;6.90;2.83;;;;;;;;;;4960990;28;20214;-69
2021/12/26 02:01:56;;;;;;;3.10;1.60;;;;;;;;;;4957797;28;20215;-68
2021/12/26 02:04:27;;;;;;;3.23;3.03;;;;;;;;;;4957381;28;20221;-70
2021/12/26 02:06:55;;;;;;;1.80;1.60;;;;;;;;;;4961119;28;20276;-69
2021/12/26 02:09:22;;;;;;;1.97;1.80;;;;;;;;;;4959228;28;20203;-68
2021/12/26 02:11:50;;;;;;;1.27;1.17;;;;;;;;;;4961673;28;20214;-68
2021/12/26 02:14:17;;;;;;;0.77;0.77;;;;;;;;;;4957725;28;20217;-68
2021/12/26 02:16:46;;;;;;;1.90;1.17;;;;;;;;;;4956938;28;20191;-69
2021/12/26 02:19:14;;;;;;;0.40;0.40;;;;;;;;;;4961711;28;20199;-69
2021/12/26 02:24:29;;;;;;;0.67;0.67;;;;;;;;;;4958461;28;20241;-69
2021/12/26 02:29:41;;;;;;;4.60;0.37;;;;;;;;;;4958967;28;20217;-68
2021/12/26 02:32:09;;;;;;;11.03;3.10;;;;;;;;;;4957127;28;20202;-67
2021/12/26 02:34:37;;;;;;;1.30;1.30;;;;;;;;;;4958128;28;20579;-67
2021/12/26 02:37:06;;;;;;;4.80;2.27;;;;;;;;;;4963586;28;20210;-68
2021/12/26 02:39:35;;;;;;;0.73;0.57;;;;;;;;;;4962397;28;20206;-69
2021/12/26 02:42:03;;;;;;;3.03;2.30;;;;;;;;;;4962157;28;20909;-68
2021/12/26 02:44:30;;;;;;;0.30;0.23;;;;;;;;;;4962700;28;20660;-69
2021/12/26 02:46:57;;;;;;;0.97;0.97;;;;;;;;;;4963265;28;20229;-68
2021/12/26 02:49:25;;;;;;;0.70;0.70;;;;;;;;;;4962106;28;20213;-69
2021/12/26 02:51:53;;;;;;;0.47;0.40;;;;;;;;;;4959164;28;20206;-68
2021/12/26 02:54:24;;;;;;;2.83;2.40;;;;;;;;;;4960499;28;20252;-68
2021/12/26 02:56:51;;;;;;;8.80;1.60;;;;;;;;;;4959083;28;20210;-69
2021/12/26 02:59:19;;;;;;;2.23;2.03;;;;;;;;;;4965352;28;20218;-68
2021/12/26 03:01:46;;;;;;;2.73;2.53;;;;;;;;;;4968690;28;20222;-69
2021/12/26 03:04:13;;;;;;;0.93;0.93;;;;;;;;;;4966188;28;20216;-68
2021/12/26 03:06:48;;;;;;;0.77;0.67;;;;;;;;;;4969107;28;20198;-69
2021/12/26 03:09:16;;;;;;;2.23;1.63;;;;;;;;;;4968282;28;20213;-68
2021/12/26 03:11:46;;;;;;;0.00;0.00;;;;;;;;;;4970042;28;20301;-70
2021/12/26 03:14:14;;;;;;;0.70;0.50;;;;;;;;;;4968216;28;20616;-69
2021/12/26 03:16:48;;;;;;;2.10;1.40;;;;;;;;;;4968390;28;20265;-69
2021/12/26 03:19:15;;;;;;;1.50;1.40;;;;;;;;;;4967335;28;20301;-69
2021/12/26 03:21:43;;;;;;;3.70;2.17;;;;;;;;;;4969752;28;20205;-69
2021/12/26 03:24:10;;;;;;;1.57;1.20;;;;;;;;;;4968013;28;20207;-69
2021/12/26 03:26:38;;;;;;;1.20;0.53;;;;;;;;;;4967095;28;20215;-69
2021/12/26 03:29:06;;;;;;;0.20;0.20;;;;;;;;;;4968155;28;20253;-67
2021/12/26 03:31:34;;;;;;;0.90;0.90;;;;;;;;;;4969394;28;20214;-67
2021/12/26 03:34:03;;;;;;;0.23;0.23;;;;;;;;;;4966364;28;20582;-70
2021/12/26 03:36:30;;;;;;;0.10;0.10;;;;;;;;;;4967903;28;20214;-67
2021/12/26 03:38:58;;;;;;;1.67;0.83;;;;;;;;;;4968464;28;20207;-69
2021/12/26 03:41:25;;;;;;;2.17;2.07;;;;;;;;;;4967260;28;20209;-70
2021/12/26 03:43:52;;;;;;;1.47;0.90;;;;;;;;;;4967581;28;20199;-69
2021/12/26 03:46:21;;;;;;;1.40;1.10;;;;;;;;;;4968141;28;20618;-69
2021/12/26 03:48:49;;;;;;;4.70;1.13;;;;;;;;;;4968665;28;20230;-68
2021/12/26 03:51:18;;;;;;;0.20;0.20;;;;;;;;;;4968270;28;20232;-69
2021/12/26 03:53:45;;;;;;;0.77;0.77;;;;;;;;;;4967592;28;20218;-69
2021/12/26 03:56:13;;;;;;;1.23;1.13;;;;;;;;;;4967655;28;20214;-68
2021/12/26 03:58:42;;;;;;;1.83;1.60;;;;;;;;;;4967274;28;20220;-69
2021/12/26 04:01:09;;;;;;;0.10;0.10;;;;;;;;;;4967189;28;20203;-67
2021/12/26 04:03:38;;;;;;;0.13;0.13;;;;;;;;;;4967458;28;20198;-69
2021/12/26 04:06:05;;;;;;;2.00;1.50;;;;;;;;;;4967565;28;20611;-68
2021/12/26 04:08:33;;;;;;;1.60;1.50;;;;;;;;;;4966360;28;20238;-69
2021/12/26 04:11:00;;;;;;;1.07;1.00;;;;;;;;;;4966180;28;20217;-69
2021/12/26 04:13:28;;;;;;;0.20;0.20;;;;;;;;;;4967140;28;22348;-68
2021/12/26 04:15:55;;;;;;;0.40;0.40;;;;;;;;;;4966749;28;20206;-69
2021/12/26 04:18:22;;;;;;;2.23;2.00;;;;;;;;;;4965877;28;20222;-69
2021/12/26 04:20:51;;;;;;;1.03;0.93;;;;;;;;;;4967111;28;20202;-69
2021/12/26 04:23:19;;;;;;;0.93;0.73;;;;;;;;;;4967790;28;20211;-69
2021/12/26 04:25:46;;;;;;;3.57;1.07;;;;;;;;;;4965378;28;20218;-68
2021/12/26 04:28:17;;;;;;;1.33;1.30;;;;;;;;;;4966410;28;20241;-68
2021/12/26 04:30:44;;;;;;;0.70;0.70;;;;;;;;;;4967836;28;20278;-69
2021/12/26 04:33:12;;;;;;;3.10;1.60;;;;;;;;;;4965646;28;20238;-68
2021/12/26 04:35:39;;;;;;;1.57;1.47;;;;;;;;;;4964630;28;20991;-68
2021/12/26 04:38:08;;;;;;;2.37;2.17;;;;;;;;;;4968193;28;20257;-68
2021/12/26 04:40:35;;;;;;;0.70;0.70;;;;;;;;;;4968288;28;20213;-69
2021/12/26 04:43:03;;;;;;;1.23;1.13;;;;;;;;;;4965331;28;20210;-69
2021/12/26 04:45:30;;;;;;;1.00;0.93;;;;;;;;;;4967243;28;20285;-69
2021/12/26 04:48:01;;;;;;;2.20;1.03;;;;;;;;;;4967980;28;20221;-68
2021/12/26 04:50:29;;;;;;;1.93;1.83;;;;;;;;;;4967179;28;20249;-69
2021/12/26 04:52:57;;;;;;;6.10;1.63;;;;;;;;;;4967281;28;20585;-67
2021/12/26 04:55:26;;;;;;;0.30;0.30;;;;;;;;;;4965446;28;21043;-67
2021/12/26 04:57:56;;;;;;;2.50;1.50;;;;;;;;;;4965804;28;20559;-68
2021/12/26 05:00:26;;;;;;;1.10;1.10;;;;;;;;;;4965441;28;20210;-70
2021/12/26 05:02:53;;;;;;;0.20;0.20;;;;;;;;;;4967543;28;20586;-69
2021/12/26 05:05:21;;;;;;;0.93;0.93;;;;;;;;;;4967497;28;20219;-69
2021/12/26 05:07:50;;;;;;;0.37;0.37;;;;;;;;;;4966523;28;20244;-67
2021/12/26 05:10:19;;;;;;;0.47;0.47;;;;;;;;;;4965582;28;20599;-70
2021/12/26 05:12:47;;;;;;;1.00;1.00;;;;;;;;;;4967380;28;20838;-69
2021/12/26 05:15:16;;;;;;;2.13;1.90;;;;;;;;;;4965426;28;20210;-69
2021/12/26 05:17:44;;;;;;;2.13;1.67;;;;;;;;;;4965218;28;20207;-68
2021/12/26 05:20:13;;;;;;;2.10;1.43;;;;;;;;;;4965212;28;20214;-68
2021/12/26 05:22:40;;;;;;;0.40;0.40;;;;;;;;;;4966027;28;20195;-68
2021/12/26 05:25:08;;;;;;;0.33;0.33;;;;;;;;;;4965741;28;20269;-67
2021/12/26 05:27:36;;;;;;;3.07;2.87;;;;;;;;;;4965098;28;21356;-68
2021/12/26 05:30:05;;;;;;;0.67;0.50;;;;;;;;;;4963954;28;20210;-69
2021/12/26 05:32:33;;;;;;;0.97;0.87;;;;;;;;;;4967294;28;20195;-68
2021/12/26 05:35:00;;;;;;;2.37;1.67;;;;;;;;;;4964529;28;20199;-68
2021/12/26 05:37:27;;;;;;;2.43;1.40;;;;;;;;;;4963826;28;20695;-67
2021/12/26 05:39:56;;;;;;;0.50;0.30;;;;;;;;;;4965708;28;20580;-67
2021/12/26 05:42:24;;;;;;;0.77;0.63;;;;;;;;;;4965690;28;20205;-69
2021/12/26 05:44:51;;;;;;;2.30;1.30;;;;;;;;;;4966588;28;20312;-68
2021/12/26 05:47:20;;;;;;;1.17;1.17;;;;;;;;;;4966586;28;20210;-68
2021/12/26 05:49:47;;;;;;;2.97;2.03;;;;;;;;;;4959111;28;20199;-69
2021/12/26 05:52:15;;;;;;;1.00;1.00;;;;;;;;;;4957890;28;20214;-68
2021/12/26 05:54:43;;;;;;;1.33;0.37;;;;;;;;;;4956007;28;20420;-68
2021/12/26 05:57:10;;;;;;;9.80;1.73;;;;;;;;;;4956477;28;20209;-68
2021/12/26 05:59:38;;;;;;;2.43;2.23;;;;;;;;;;4956942;28;20186;-68
2021/12/26 06:02:05;;;;;;;4.87;2.13;;;;;;;;;;4958215;28;20202;-68
2021/12/26 06:04:34;;;;;;;1.93;1.70;;;;;;;;;;4957129;28;20206;-67
2021/12/26 06:07:02;;;;;;;0.83;0.83;;;;;;;;;;4959199;28;20202;-69
2021/12/26 06:09:29;;;;;;;2.10;1.97;;;;;;;;;;4956571;28;20234;-68
2021/12/26 06:11:57;;;;;;;1.00;0.83;;;;;;;;;;4962925;28;20221;-68
2021/12/26 06:14:24;;;;;;;0.20;0.20;;;;;;;;;;4959998;28;20564;-68
2021/12/26 06:16:51;;;;;;;0.60;0.60;;;;;;;;;;4962993;28;20225;-67
2021/12/26 06:19:19;;;;;;;0.40;0.40;;;;;;;;;;4959736;28;20206;-69
2021/12/26 06:21:48;;;;;;;0.10;0.10;;;;;;;;;;4959646;28;21546;-69
2021/12/26 06:24:15;;;;;;;0.97;0.97;;;;;;;;;;4962463;28;20202;-68
2021/12/26 06:26:43;;;;;;;1.23;1.23;;;;;;;;;;4960257;28;20198;-68
2021/12/26 06:29:10;;;;;;;1.60;1.30;;;;;;;;;;4957431;28;20369;-68
2021/12/26 06:31:38;;;;;;;0.80;0.80;;;;;;;;;;4961294;28;20198;-69
2021/12/26 06:34:05;;;;;;;1.17;1.17;;;;;;;;;;4967235;28;20609;-68
2021/12/26 06:36:33;;;;;;;0.93;0.93;;;;;;;;;;4958032;28;20213;-66
2021/12/26 06:39:02;;;;;;;2.17;2.07;;;;;;;;;;4962043;28;20680;-70
2021/12/26 06:41:29;;;;;;;0.00;0.00;;;;;;;;;;4959346;28;20960;-68
2021/12/26 06:43:56;;;;;;;1.00;0.93;;;;;;;;;;4961322;28;20299;-67
2021/12/26 06:46:24;;;;;;;0.93;0.93;;;;;;;;;;4967644;28;20209;-69
2021/12/26 06:48:51;;;;;;;1.83;1.63;;;;;;;;;;4966719;28;20239;-68
2021/12/26 06:51:20;;;;;;;1.53;1.23;;;;;;;;;;4968907;28;20194;-69
2021/12/26 06:53:48;;;;;;;1.13;1.00;;;;;;;;;;4967988;28;20206;-69
2021/12/26 06:56:17;;;;;;;3.63;2.93;;;;;;;;;;4968346;28;20214;-68
2021/12/26 06:58:44;;;;;;;0.50;0.50;;;;;;;;;;4969317;28;20206;-68
2021/12/26 07:01:11;;;;;;;1.40;1.17;;;;;;;;;;4969441;28;20233;-68
2021/12/26 07:03:39;;;;;;;5.83;3.27;;;;;;;;;;4968186;28;20301;-68
2021/12/26 07:06:06;;;;;;;3.57;1.63;;;;;;;;;;4969683;28;20210;-69
2021/12/26 07:08:34;;;;;;;1.00;0.97;;;;;;;;;;4967855;28;20238;-69
2021/12/26 07:11:01;;;;;;;2.57;2.37;;;;;;;;;;4966597;28;20230;-68
2021/12/26 07:13:30;;;;;;;1.43;1.13;;;;;;;;;;4969909;28;20211;-68
2021/12/26 07:15:57;;;;;;;5.47;2.60;;;;;;;;;;4968342;28;20214;-68
2021/12/26 07:18:25;;;;;;;3.57;2.17;;;;;;;;;;4967959;28;20206;-70
2021/12/26 07:20:52;;;;;;;0.40;0.40;;;;;;;;;;4968802;28;20210;-69
2021/12/26 07:23:19;;;;;;;0.67;0.67;;;;;;;;;;4966874;28;20210;-69
2021/12/26 07:25:47;;;;;;;5.03;1.83;;;;;;;;;;4968096;28;20592;-68
2021/12/26 07:28:14;;;;;;;6.27;3.33;;;;;;;;;;4966454;28;20718;-69
2021/12/26 07:30:43;;;;;;;2.70;2.37;;;;;;;;;;4968446;28;20213;-68
2021/12/26 07:33:10;;;;;;;0.73;0.73;;;;;;;;;;4968265;28;20199;-69
2021/12/26 07:35:38;;;;;;;0.57;0.57;;;;;;;;;;4967778;28;20209;-68
2021/12/26 07:38:05;;;;;;;0.83;0.83;;;;;;;;;;4968349;28;20206;-68
2021/12/26 07:40:32;;;;;;;0.17;0.13;;;;;;;;;;4967482;28;20568;-69
2021/12/26 07:43:00;;;;;;;2.87;2.67;;;;;;;;;;4969457;28;20202;-68
2021/12/26 07:45:27;;;;;;;2.60;2.10;;;;;;;;;;4968043;28;20285;-68
2021/12/26 07:47:56;;;;;;;1.40;0.87;;;;;;;;;;4967965;28;20319;-68
2021/12/26 07:50:26;;;;;;;3.10;2.47;;;;;;;;;;4967519;28;20238;-69
2021/12/26 07:52:54;;;;;;;1.37;1.27;;;;;;;;;;4967332;28;20692;-68
2021/12/26 07:55:23;;;;;;;4.17;3.77;;;;;;;;;;4967423;28;20233;-68
2021/12/26 07:57:50;;;;;;;0.73;0.73;;;;;;;;;;4965290;28;20202;-68
2021/12/26 08:00:18;;;;;;;2.20;1.50;;;;;;;;;;4969302;28;20561;-71
2021/12/26 08:02:46;;;;;;;0.50;0.37;;;;;;;;;;4961706;28;20207;-69
2021/12/26 08:05:15;;;;;;;2.37;2.13;;;;;;;;;;4961079;28;20206;-69
2021/12/26 08:07:42;;;;;;;2.43;1.77;;;;;;;;;;4957869;28;20589;-68
2021/12/26 08:10:10;;;;;;;1.13;0.93;;;;;;;;;;4960465;28;20580;-69
2021/12/26 08:12:38;;;;;;;2.30;1.43;;;;;;;;;;4962058;28;20265;-68
2021/12/26 08:15:05;;;;;;;1.43;1.33;;;;;;;;;;4966883;28;20225;-69
2021/12/26 08:17:33;;;;;;;2.23;0.97;;;;;;;;;;4967772;28;20202;-68
2021/12/26 08:20:01;;;;;;;3.77;3.47;;;;;;;;;;4967391;28;20261;-69
2021/12/26 08:22:29;;;;;;;0.93;0.93;;;;;;;;;;4965518;28;20322;-69
2021/12/26 08:24:57;;;;;;;1.07;1.07;;;;;;;;;;4966871;28;20206;-68
2021/12/26 08:27:24;;;;;;;1.17;1.10;;;;;;;;;;4967854;28;20573;-69
2021/12/26 08:29:52;;;;;;;5.30;3.33;;;;;;;;;;4964141;28;20273;-67
2021/12/26 08:32:19;;;;;;;0.37;0.37;;;;;;;;;;4960714;28;20272;-67
2021/12/26 08:34:47;;;;;;;0.00;0.00;;;;;;;;;;4960335;28;20203;-67
2021/12/26 08:37:14;;;;;;;2.43;1.90;;;;;;;;;;4959059;28;20218;-69
2021/12/26 08:39:44;;;;;;;0.87;0.87;;;;;;;;;;4960373;28;20221;-68
2021/12/26 08:42:12;;;;;;;0.83;0.83;;;;;;;;;;4961361;28;20544;-67
2021/12/26 08:44:40;;;;;;;1.87;1.70;;;;;;;;;;4959055;28;20198;-66
2021/12/26 08:47:08;;;;;;;1.60;1.30;;;;;;;;;;4958782;28;20205;-67
2021/12/26 08:49:36;;;;;;;0.77;0.23;;;;;;;;;;4962443;28;20234;-68
2021/12/26 08:52:05;;;;;;;1.13;0.77;;;;;;;;;;4961385;28;20213;-67
2021/12/26 08:54:33;;;;;;;2.17;1.93;;;;;;;;;;4960047;28;20234;-71
2021/12/26 08:57:02;;;;;;;0.67;0.30;;;;;;;;;;4958226;28;20293;-67
2021/12/26 08:59:30;;;;;;;2.57;2.43;;;;;;;;;;4963586;28;21003;-67
2021/12/26 09:01:58;;;;;;;0.80;0.80;;;;;;;;;;4960421;28;20214;-68
2021/12/26 09:04:25;;;;;;;1.37;1.27;;;;;;;;;;4960428;28;20542;-70
2021/12/26 09:06:53;;;;;;;1.80;1.70;;;;;;;;;;4962504;28;20202;-70
2021/12/26 09:09:21;;;;;;;0.30;0.30;;;;;;;;;;4954192;28;21874;-70
2021/12/26 09:11:49;;;;;;;2.33;1.80;;;;;;;;;;4958298;28;20679;-71
2021/12/26 09:14:18;;;;;;;1.30;0.93;;;;;;;;;;4956564;28;20217;-69
2021/12/26 09:16:46;;;;;;;2.80;2.60;;;;;;;;;;4954871;28;20218;-69
2021/12/26 09:19:13;;;;;;;1.57;1.50;;;;;;;;;;4961761;28;20230;-66
2021/12/26 09:21:41;;;;;;;1.60;1.50;;;;;;;;;;4963741;28;20209;-69
2021/12/26 09:24:08;;;;;;;0.50;0.47;;;;;;;;;;4965342;28;20210;-68
2021/12/26 09:26:36;;;;;;;0.80;0.80;;;;;;;;;;4957748;28;20792;-69
2021/12/26 09:29:03;;;;;;;0.20;0.20;;;;;;;;;;4957135;28;20241;-69
2021/12/26 09:31:32;;;;;;;0.83;0.80;;;;;;;;;;4955055;28;20213;-68
2021/12/26 09:34:00;;;;;;;2.77;2.27;;;;;;;;;;4957361;28;20224;-68
2021/12/26 09:36:28;;;;;;;0.67;0.50;;;;;;;;;;4955350;28;20282;-69
2021/12/26 09:38:55;;;;;;;3.43;1.93;;;;;;;;;;4955944;28;20287;-70
2021/12/26 09:41:23;;;;;;;2.87;2.57;;;;;;;;;;4955217;28;20292;-68
2021/12/26 09:43:50;;;;;;;0.93;0.90;;;;;;;;;;4957220;28;20221;-68
2021/12/26 09:46:17;;;;;;;2.30;2.10;;;;;;;;;;4956576;28;20956;-69
2021/12/26 09:48:46;;;;;;;2.03;1.57;;;;;;;;;;4960601;28;20218;-69
2021/12/26 09:51:14;;;;;;;2.50;2.13;;;;;;;;;;4957046;28;20210;-68
2021/12/26 09:53:43;;;;;;;0.37;0.37;;;;;;;;;;4961912;28;20211;-69
2021/12/26 09:56:11;;;;;;;2.10;0.70;;;;;;;;;;4964369;28;20211;-68
2021/12/26 09:58:52;;;;;;;1.93;1.07;;;;;;;;;;4964867;28;20202;-68
2021/12/26 10:01:27;;;;;;;3.10;2.80;;;;;;;;;;4963443;28;20217;-68
2021/12/26 10:03:56;;;;;;;0.17;0.17;;;;;;;;;;4962276;28;20209;-68
2021/12/26 10:06:25;;;;;;;1.07;1.03;;;;;;;;;;4964014;28;20224;-68
2021/12/26 10:08:54;;;;;;;1.60;1.07;;;;;;;;;;4965355;28;20675;-68
2021/12/26 10:11:23;;;;;;;2.87;2.67;;;;;;;;;;4963714;28;20210;-70
2021/12/26 10:13:52;;;;;;;1.13;1.03;;;;;;;;;;4963219;28;20211;-70
2021/12/26 10:16:20;;;;;;;0.00;0.00;;;;;;;;;;4965189;28;20675;-68
2021/12/26 10:18:48;;;;;;;0.90;0.90;;;;;;;;;;4965432;28;20212;-69
2021/12/26 10:21:37;;;;;;;2.43;1.60;;;;;;;;;;4966206;28;20214;-68
2021/12/26 10:24:07;;;;;;;0.77;0.77;;;;;;;;;;4965837;28;20198;-70
2021/12/26 10:26:35;;;;;;;0.40;0.40;;;;;;;;;;4964128;28;20293;-69
2021/12/26 10:29:10;;;;;;;0.93;0.63;;;;;;;;;;4965587;28;20213;-68
2021/12/26 10:31:39;;;;;;;3.37;3.00;;;;;;;;;;4964791;28;20221;-70
2021/12/26 10:34:07;;;;;;;1.20;1.10;;;;;;;;;;4964512;28;20210;-71
2021/12/26 10:36:42;;;;;;;1.30;1.20;;;;;;;;;;4966154;28;20217;-70
2021/12/26 10:39:12;;;;;;;2.47;2.27;;;;;;;;;;4964416;28;20281;-67
2021/12/26 10:41:43;;;;;;;2.47;2.27;;;;;;;;;;4965916;28;20234;-71
2021/12/26 10:44:20;;;;;;;0.10;0.10;;;;;;;;;;4962956;28;20700;-66
2021/12/26 10:46:48;;;;;;;6.30;3.17;;;;;;;;;;4966230;28;20229;-68
2021/12/26 10:49:22;;;;;;;0.50;0.17;;;;;;;;;;4960901;28;20257;-68
2021/12/26 10:51:51;;;;;;;2.90;2.17;;;;;;;;;;4965937;28;20205;-69
2021/12/26 10:54:20;;;;;;;1.00;0.90;;;;;;;;;;4965550;28;20226;-70
2021/12/26 10:57:04;;;;;;;1.73;1.07;;;;;;;;;;4965265;28;21495;-65
2021/12/26 10:59:32;;;;;;;0.73;0.73;;;;;;;;;;4985237;28;20224;-67
2021/12/26 11:01:59;;;;;;;0.03;0.03;;;;;;;;;;4972053;28;20201;-69
2021/12/26 11:04:26;;;;;;;0.10;0.10;;;;;;;;;;4965311;28;20210;-68
2021/12/26 11:07:02;;;;;;;0.67;0.67;;;;;;;;;;4965732;28;20217;-68
2021/12/26 11:09:30;;;;;;;0.93;0.93;;;;;;;;;;4970590;28;20234;-68
2021/12/26 11:12:02;;;;;;;2.07;1.80;;;;;;;;;;4973715;28;20210;-66
2021/12/26 11:14:30;;;;;;;1.70;1.50;;;;;;;;;;4984820;28;20289;-67
2021/12/26 11:16:57;;;;;;;1.50;1.40;;;;;;;;;;4974747;28;20202;-68
2021/12/26 11:19:44;;;;;;;0.07;0.07;;;;;;;;;;4973883;28;20216;-69
2021/12/26 11:22:12;;;;;;;1.13;0.70;;;;;;;;;;4972555;28;20288;-69
2021/12/26 11:24:41;;;;;;;1.13;1.13;;;;;;;;;;4973172;28;20659;-68
2021/12/26 11:27:08;;;;;;;5.00;2.27;;;;;;;;;;4972150;28;20214;-67
2021/12/26 11:29:36;;;;;;;0.00;0.00;;;;;;;;;;4968780;28;20242;-69
2021/12/26 11:32:04;;;;;;;0.67;0.63;;;;;;;;;;4968380;28;20202;-69
2021/12/26 11:34:32;;;;;;;3.90;3.63;;;;;;;;;;4970030;28;20676;-68
2021/12/26 11:37:00;;;;;;;0.77;0.33;;;;;;;;;;4972273;28;20198;-68
2021/12/26 11:39:30;;;;;;;0.43;0.43;;;;;;;;;;4967605;28;20209;-70
2021/12/26 11:42:08;;;;;;;1.80;1.67;;;;;;;;;;4968277;28;20210;-71
2021/12/26 11:44:46;;;;;;;0.90;0.83;;;;;;;;;;4967479;28;20209;-70
2021/12/26 11:47:26;;;;;;;1.17;1.03;;;;;;;;;;4966343;28;20214;-68
2021/12/26 11:50:08;;;;;;;2.20;1.90;;;;;;;;;;4967700;28;20372;-68
2021/12/26 11:52:49;;;;;;;2.27;2.07;;;;;;;;;;4965851;28;20206;-68
2021/12/26 11:55:22;;;;;;;1.13;1.10;;;;;;;;;;4966041;28;20233;-67
2021/12/26 11:58:12;;;;;;;2.10;1.90;;;;;;;;;;4967888;28;20855;-69
2021/12/26 12:00:42;;;;;;;1.03;1.03;;;;;;;;;;4966570;28;22456;-68
2021/12/26 12:03:18;;;;;;;1.73;1.60;;;;;;;;;;4965091;28;20277;-69
2021/12/26 12:05:45;;;;;;;1.10;1.10;;;;;;;;;;4967539;28;20230;-70
2021/12/26 12:08:14;;;;;;;2.77;1.57;;;;;;;;;;4965796;28;20202;-69
2021/12/26 12:10:45;;;;;;;1.63;1.53;;;;;;;;;;4965424;28;20714;-68
2021/12/26 12:13:14;;;;;;;2.33;2.07;;;;;;;;;;4970132;28;20210;-68
2021/12/26 12:15:43;;;;;;;0.20;0.20;;;;;;;;;;4965588;28;20213;-68
2021/12/26 12:18:12;;;;;;;1.80;0.90;;;;;;;;;;4966789;28;20206;-70
2021/12/26 12:20:39;;;;;;;1.00;0.90;;;;;;;;;;4964404;28;20225;-68
2021/12/26 12:23:17;;;;;;;3.03;1.57;;;;;;;;;;4967749;28;20210;-68
2021/12/26 12:25:50;;;;;;;2.20;2.00;;;;;;;;;;4967728;28;20210;-69
2021/12/26 12:28:19;;;;;;;0.20;0.20;;;;;;;;;;4967922;28;20217;-69
2021/12/26 12:30:47;;;;;;;0.63;0.63;;;;;;;;;;4965500;28;20229;-69
2021/12/26 12:33:15;;;;;;;0.30;0.30;;;;;;;;;;4966863;28;20209;-68
2021/12/26 12:35:53;;;;;;;2.73;1.37;;;;;;;;;;4967634;28;20206;-71
2021/12/26 12:38:26;;;;;;;0.77;0.77;;;;;;;;;;4965177;28;20202;-68
2021/12/26 12:40:55;;;;;;;2.90;2.60;;;;;;;;;;4968477;28;20214;-70
2021/12/26 12:43:24;;;;;;;1.70;0.87;;;;;;;;;;4965627;28;20686;-68
2021/12/26 12:46:04;;;;;;;3.30;1.73;;;;;;;;;;4966332;28;20198;-70
2021/12/26 12:48:33;;;;;;;2.80;2.00;;;;;;;;;;4964715;28;20791;-68
2021/12/26 12:51:01;;;;;;;1.20;1.20;;;;;;;;;;4964530;28;20325;-69
2021/12/26 12:53:44;;;;;;;0.97;0.70;;;;;;;;;;4968406;28;20670;-69
2021/12/26 12:56:33;;;;;;;0.10;0.10;;;;;;;;;;4969381;28;20217;-68
2021/12/26 12:59:16;;;;;;;0.93;0.93;;;;;;;;;;4967745;28;20211;-70
2021/12/26 13:01:45;;;;;;;2.47;1.33;;;;;;;;;;4971911;28;20229;-73
2021/12/26 13:04:13;;;;;;;0.33;0.33;;;;;;;;;;4969248;28;20209;-72
2021/12/26 13:06:48;;;;;;;3.30;1.27;;;;;;;;;;4969290;28;20210;-73
2021/12/26 13:09:16;;;;;;;0.80;0.80;;;;;;;;;;4968787;28;20200;-72
2021/12/26 13:11:45;;;;;;;1.03;1.03;;;;;;;;;;4968124;28;20707;-70
2021/12/26 13:14:12;;;;;;;0.20;0.20;;;;;;;;;;4971659;28;20207;-71
2021/12/26 13:16:40;;;;;;;2.50;1.87;;;;;;;;;;4969022;28;20214;-74
2021/12/26 13:19:07;;;;;;;2.50;2.30;;;;;;;;;;4970268;28;20583;-74
2021/12/26 13:21:35;;;;;;;1.03;0.73;;;;;;;;;;4970690;28;20214;-76
2021/12/26 13:24:03;;;;;;;0.23;0.23;;;;;;;;;;4969467;28;20207;-73
2021/12/26 13:26:30;;;;;;;1.37;0.73;;;;;;;;;;4967042;28;20209;-70
2021/12/26 13:28:59;;;;;;;0.37;0.37;;;;;;;;;;4967275;28;20852;-71
2021/12/26 13:31:26;;;;;;;0.83;0.57;;;;;;;;;;4967700;28;20237;-70
2021/12/26 13:33:54;;;;;;;1.90;1.57;;;;;;;;;;4969679;28;20203;-74
2021/12/26 13:36:23;;;;;;;1.13;0.83;;;;;;;;;;4969620;28;20205;-72
2021/12/26 13:38:51;;;;;;;0.63;0.63;;;;;;;;;;4965851;28;20198;-71
2021/12/26 13:41:20;;;;;;;1.27;1.20;;;;;;;;;;4970291;28;20663;-73
2021/12/26 13:43:47;;;;;;;0.13;0.13;;;;;;;;;;4970482;28;20220;-72
2021/12/26 13:46:18;;;;;;;1.60;1.27;;;;;;;;;;4970278;28;20214;-73
2021/12/26 13:48:46;;;;;;;2.10;1.43;;;;;;;;;;4967167;28;20208;-75
2021/12/26 13:51:18;;;;;;;2.63;2.03;;;;;;;;;;4966147;28;20237;-71
2021/12/26 13:53:46;;;;;;;1.73;1.60;;;;;;;;;;4963359;28;20575;-71
2021/12/26 13:56:13;;;;;;;1.17;1.07;;;;;;;;;;4962301;28;20210;-69
2021/12/26 13:58:42;;;;;;;1.50;1.40;;;;;;;;;;4964252;28;20214;-69
2021/12/26 14:01:11;;;;;;;1.50;1.40;;;;;;;;;;4966171;28;20269;-70
2021/12/26 14:03:45;;;;;;;0.50;0.50;;;;;;;;;;4967442;28;20290;-72
2021/12/26 14:06:12;;;;;;;0.10;0.10;;;;;;;;;;4963593;28;20206;-70
2021/12/26 14:08:40;;;;;;;1.63;1.47;;;;;;;;;;4962174;28;20693;-71
2021/12/26 14:11:08;;;;;;;1.90;1.77;;;;;;;;;;4962653;28;20237;-69
2021/12/26 14:13:45;;;;;;;2.43;2.10;;;;;;;;;;4963704;28;20210;-69
2021/12/26 14:16:13;;;;;;;1.37;1.27;;;;;;;;;;4963045;28;20205;-70
2021/12/26 14:18:42;;;;;;;0.30;0.30;;;;;;;;;;4965258;28;20217;-70
2021/12/26 14:21:12;;;;;;;1.20;1.20;;;;;;;;;;4966103;28;20207;-69
2021/12/26 14:23:41;;;;;;;0.37;0.37;;;;;;;;;;4964888;28;20725;-69
2021/12/26 14:26:09;;;;;;;1.10;0.77;;;;;;;;;;4965381;28;20718;-69
2021/12/26 14:28:40;;;;;;;0.23;0.23;;;;;;;;;;4966174;28;20198;-69
2021/12/26 14:31:07;;;;;;;0.60;0.60;;;;;;;;;;4966035;28;20226;-67
2021/12/26 14:33:47;;;;;;;1.90;1.40;;;;;;;;;;4968006;28;20202;-69
2021/12/26 14:36:15;;;;;;;2.13;1.93;;;;;;;;;;4965624;28;20202;-67
2021/12/26 14:38:51;;;;;;;0.63;0.63;;;;;;;;;;4969800;28;21129;-69
2021/12/26 14:41:19;;;;;;;0.13;0.10;;;;;;;;;;4968483;28;20210;-69
2021/12/26 14:43:46;;;;;;;2.50;1.77;;;;;;;;;;4968563;28;20221;-70
2021/12/26 14:46:14;;;;;;;1.63;1.53;;;;;;;;;;4971255;28;20574;-70
2021/12/26 14:48:41;;;;;;;0.20;0.20;;;;;;;;;;4968580;28;20206;-70
2021/12/26 14:51:12;;;;;;;2.83;1.67;;;;;;;;;;4968557;28;20230;-69
2021/12/26 14:53:40;;;;;;;0.53;0.53;;;;;;;;;;4970322;28;20210;-69
2021/12/26 14:56:09;;;;;;;0.97;0.97;;;;;;;;;;4971269;28;20210;-70
2021/12/26 14:58:41;;;;;;;1.87;1.60;;;;;;;;;;4969888;28;20605;-70